KSTE

Stevens Point Municipal Airport

Stevens Point, Wisconsin, USA
METAR KSTE 190655Z AUTO 22004KT 10SM CLR M05/M08 A2978 RMK AO2 T10481076
Observed Flight Rules
Jan-19 @ 06:55 UTC (31 minutes ago) Visual Flight Rules
Wind Visibility Clouds
220° at 4 knots 10 miles
  • Clear skies
Temperatures Readings
Current -5°C / 23°F
Dewpoint -8°C / 18°F
Humidity 80%
Altimeter 29.78" Hg
Pressure 1008 hPa
Elevation 338
METAR KSTE 190655Z AUTO 22004KT 10SM CLR M05/M08 A2978 RMK AO2 T10481076
Observed Flight Rules
Jan-19 @ 06:55 UTC
(31 minutes ago)
VFR
Wind Visibility
220° at 4 knots 10 miles
Clouds
  • Clear skies
Temperature Dewpoint
-5°C / 23°F -8°C / 18°F
Humidity Altimeter Pressure
80% 29.78" Hg 1008 hPa